createdAt,value
2023-01-19T00:01:46.223Z,16.60
2023-01-19T00:04:15.112Z,17.00
2023-01-19T00:06:44.210Z,15.90
2023-01-19T00:09:13.313Z,15.70
2023-01-19T00:11:42.201Z,15.40
2023-01-19T00:14:11.291Z,15.90
2023-01-19T00:16:40.184Z,15.40
2023-01-19T00:19:09.592Z,17.20
2023-01-19T00:21:38.401Z,16.30
2023-01-19T00:24:07.669Z,16.80
2023-01-19T00:26:40.795Z,14.40
2023-01-19T00:29:12.249Z,13.10
2023-01-19T00:31:41.707Z,11.80
2023-01-19T00:34:10.528Z,11.80
2023-01-19T00:36:39.511Z,10.70
2023-01-19T00:39:08.908Z,10.50
2023-01-19T00:41:56.028Z,9.10
2023-01-19T00:44:25.031Z,9.10
2023-01-19T00:46:53.911Z,9.20
2023-01-19T00:49:22.725Z,8.60
2023-01-19T00:51:51.705Z,9.00
2023-01-19T00:54:20.698Z,9.20
2023-01-19T00:56:49.701Z,9.50
2023-01-19T00:59:18.688Z,9.60
2023-01-19T01:01:47.793Z,9.50
2023-01-19T01:04:16.876Z,8.60
2023-01-19T01:06:45.872Z,7.90
2023-01-19T01:09:14.988Z,7.80
2023-01-19T01:11:44.373Z,6.90
2023-01-19T01:14:14.182Z,7.20
2023-01-19T01:16:43.344Z,7.10
2023-01-19T01:19:12.500Z,6.40
2023-01-19T01:21:41.778Z,6.70
2023-01-19T01:24:11.184Z,6.60
2023-01-19T01:26:40.285Z,7.20
2023-01-19T01:29:09.075Z,6.80
2023-01-19T01:31:38.201Z,6.40
2023-01-19T01:34:07.765Z,6.80
2023-01-19T01:36:36.672Z,7.10
2023-01-19T01:39:05.669Z,7.30
2023-01-19T01:41:35.164Z,7.00
2023-01-19T01:44:08.464Z,6.90
2023-01-19T01:46:37.343Z,7.00
2023-01-19T01:49:13.789Z,6.90
2023-01-19T01:51:51.953Z,7.10
2023-01-19T01:54:32.910Z,7.50
2023-01-19T01:57:12.649Z,7.10
2023-01-19T01:59:48.085Z,6.20
2023-01-19T02:02:42.127Z,6.40
2023-01-19T02:05:28.514Z,6.50
2023-01-19T02:08:34.246Z,7.30
2023-01-19T02:11:22.789Z,6.90
2023-01-19T02:13:52.040Z,6.60
2023-01-19T02:16:21.103Z,7.60
2023-01-19T02:18:50.090Z,7.80
2023-01-19T02:21:31.150Z,7.10
2023-01-19T02:24:03.352Z,7.10
2023-01-19T02:26:39.577Z,7.40
2023-01-19T02:29:21.111Z,7.00
2023-01-19T02:31:50.269Z,6.40
2023-01-19T02:34:21.824Z,6.40
2023-01-19T02:36:59.325Z,6.20
2023-01-19T02:39:45.677Z,6.70
2023-01-19T02:42:41.074Z,6.80
2023-01-19T02:45:13.005Z,6.60
2023-01-19T02:47:51.619Z,6.20
2023-01-19T02:50:50.199Z,5.90
2023-01-19T02:53:33.012Z,5.60
2023-01-19T02:56:17.066Z,5.30
2023-01-19T02:59:00.806Z,5.10
2023-01-19T03:02:22.201Z,4.50
2023-01-19T03:05:37.032Z,4.70
2023-01-19T03:08:31.198Z,5.20
2023-01-19T03:11:10.502Z,4.90
2023-01-19T03:13:48.424Z,4.90
2023-01-19T03:16:48.841Z,4.90
2023-01-19T03:19:27.474Z,4.70
2023-01-19T03:22:06.157Z,5.10
2023-01-19T03:24:40.684Z,4.10
2023-01-19T03:27:27.553Z,4.80
2023-01-19T03:30:23.547Z,4.90
2023-01-19T03:33:07.543Z,4.20
2023-01-19T03:35:42.156Z,5.10
2023-01-19T03:38:17.515Z,5.00
2023-01-19T03:40:47.931Z,4.90
2023-01-19T03:43:18.168Z,4.70
2023-01-19T03:45:48.362Z,5.30
2023-01-19T03:48:18.056Z,5.30
2023-01-19T03:50:47.047Z,5.30
2023-01-19T03:53:18.193Z,5.20
2023-01-19T03:55:48.717Z,5.10
2023-01-19T03:58:18.047Z,5.00
2023-01-19T04:00:46.917Z,5.00
2023-01-19T04:03:18.648Z,5.30
2023-01-19T04:05:47.871Z,4.60
2023-01-19T04:08:16.659Z,5.00
2023-01-19T04:10:45.667Z,4.50
2023-01-19T04:13:14.538Z,5.10
2023-01-19T04:15:43.445Z,5.00
2023-01-19T04:18:12.530Z,5.30
2023-01-19T04:20:41.651Z,4.60
2023-01-19T04:23:11.151Z,4.30
2023-01-19T04:25:40.889Z,4.10
2023-01-19T04:28:09.845Z,4.80
2023-01-19T04:30:39.245Z,4.90
2023-01-19T04:33:08.258Z,4.70
2023-01-19T04:35:37.227Z,4.90
2023-01-19T04:38:06.121Z,5.50
2023-01-19T04:40:35.210Z,5.40
2023-01-19T04:43:04.644Z,5.60
2023-01-19T04:45:33.725Z,5.10
2023-01-19T04:48:04.447Z,4.30
2023-01-19T04:50:33.879Z,5.40
2023-01-19T04:53:02.865Z,4.40
2023-01-19T04:55:32.157Z,4.70
2023-01-19T04:58:01.608Z,5.60
2023-01-19T05:00:30.765Z,5.60
2023-01-19T05:03:00.135Z,5.50
2023-01-19T05:05:29.973Z,5.40
2023-01-19T05:07:58.856Z,5.00
2023-01-19T05:10:28.290Z,5.10
2023-01-19T05:12:58.115Z,6.30
2023-01-19T05:15:27.477Z,5.50
2023-01-19T05:17:58.343Z,5.90
2023-01-19T05:20:27.322Z,4.80
2023-01-19T05:22:56.361Z,7.70
2023-01-19T05:25:25.346Z,5.80
2023-01-19T05:27:54.146Z,5.50
2023-01-19T05:30:23.064Z,5.80
2023-01-19T05:32:51.759Z,5.50
2023-01-19T05:35:31.325Z,5.80
2023-01-19T05:38:04.846Z,6.50
2023-01-19T05:40:33.914Z,4.80
2023-01-19T05:43:05.402Z,6.50
2023-01-19T05:45:34.789Z,5.70
2023-01-19T05:48:03.874Z,5.90
2023-01-19T05:50:34.474Z,5.60
2023-01-19T05:53:03.752Z,5.90
2023-01-19T05:55:33.827Z,5.70
2023-01-19T05:58:02.607Z,5.10
2023-01-19T06:00:31.719Z,5.30
2023-01-19T06:03:02.844Z,5.20
2023-01-19T06:05:31.893Z,6.20
2023-01-19T06:08:00.739Z,5.70
2023-01-19T06:10:30.012Z,6.50
2023-01-19T06:12:59.227Z,6.90
2023-01-19T06:15:28.748Z,6.00
2023-01-19T06:17:57.530Z,7.30
2023-01-19T06:20:26.322Z,6.50
2023-01-19T06:22:58.064Z,6.20
2023-01-19T06:25:26.961Z,7.80
2023-01-19T06:27:56.172Z,6.40
2023-01-19T06:30:25.053Z,6.30
2023-01-19T06:32:54.266Z,6.10
2023-01-19T06:35:23.158Z,6.10
2023-01-19T06:37:53.524Z,5.80
2023-01-19T06:40:22.434Z,5.40
2023-01-19T06:42:51.256Z,5.90
2023-01-19T06:45:19.962Z,6.10
2023-01-19T06:47:48.946Z,5.20
2023-01-19T06:50:17.867Z,6.10
2023-01-19T06:52:49.822Z,5.70
2023-01-19T06:55:19.173Z,6.10
2023-01-19T06:57:48.638Z,6.60
2023-01-19T07:00:18.818Z,6.20
2023-01-19T07:02:47.963Z,5.60
2023-01-19T07:05:17.937Z,5.60
2023-01-19T07:07:56.006Z,5.90
2023-01-19T07:10:25.415Z,6.60
2023-01-19T07:12:57.539Z,5.70
2023-01-19T07:15:26.704Z,6.90
2023-01-19T07:17:59.292Z,6.10
2023-01-19T07:20:28.213Z,6.00
2023-01-19T07:22:57.951Z,5.30
2023-01-19T07:25:27.266Z,5.40
2023-01-19T07:28:00.330Z,5.80
2023-01-19T07:32:58.779Z,5.80
2023-01-19T07:35:29.845Z,5.20
2023-01-19T07:37:59.549Z,5.90
2023-01-19T07:40:28.584Z,5.70
2023-01-19T07:42:57.317Z,5.60
2023-01-19T07:45:28.014Z,6.30
2023-01-19T07:47:56.937Z,6.50
2023-01-19T07:50:27.789Z,5.30
2023-01-19T07:52:56.829Z,6.70
2023-01-19T07:55:25.689Z,6.00
2023-01-19T07:57:54.483Z,8.80
2023-01-19T08:00:25.502Z,6.00
2023-01-19T08:03:01.327Z,5.40
2023-01-19T08:05:30.456Z,6.10
2023-01-19T08:08:00.620Z,5.00
2023-01-19T08:10:29.572Z,6.60
2023-01-19T08:12:59.554Z,5.60
2023-01-19T08:15:28.553Z,5.50
2023-01-19T08:18:05.870Z,5.40
2023-01-19T08:20:34.596Z,5.60
2023-01-19T08:23:04.961Z,5.30
2023-01-19T08:25:42.406Z,5.50
2023-01-19T08:28:14.910Z,5.10
2023-01-19T08:30:45.327Z,5.10
2023-01-19T08:33:14.455Z,5.80
2023-01-19T08:35:47.835Z,5.90
2023-01-19T08:38:17.342Z,6.40
2023-01-19T08:40:46.208Z,5.40
2023-01-19T08:43:17.385Z,6.10
2023-01-19T08:45:52.041Z,5.30
2023-01-19T08:48:23.624Z,5.50
2023-01-19T08:50:53.053Z,5.50
2023-01-19T08:53:23.812Z,5.90
2023-01-19T08:56:01.464Z,5.40
2023-01-19T08:58:30.306Z,5.30
2023-01-19T09:01:01.510Z,5.20
2023-01-19T09:03:31.718Z,6.00
2023-01-19T09:06:00.381Z,5.30
2023-01-19T09:08:29.182Z,5.20
2023-01-19T09:10:57.957Z,6.00
2023-01-19T09:13:26.760Z,7.00
2023-01-19T09:15:55.631Z,5.20
2023-01-19T09:18:24.460Z,5.50
2023-01-19T09:20:53.241Z,5.10
2023-01-19T09:23:22.920Z,5.30
2023-01-19T09:26:02.139Z,4.70
2023-01-19T09:28:31.171Z,4.80
2023-01-19T09:31:00.392Z,4.60
2023-01-19T09:33:29.539Z,5.50
2023-01-19T09:35:58.235Z,5.10
2023-01-19T09:38:27.201Z,5.60
2023-01-19T09:40:57.356Z,4.70
2023-01-19T09:43:40.811Z,6.00
2023-01-19T09:46:37.074Z,5.80
2023-01-19T09:49:14.810Z,5.50
2023-01-19T09:51:50.843Z,5.10
2023-01-19T09:54:47.100Z,5.50
2023-01-19T09:57:16.004Z,5.00
2023-01-19T09:59:48.053Z,4.10
2023-01-19T10:02:47.181Z,5.50
2023-01-19T10:05:40.214Z,5.50
2023-01-19T10:08:42.136Z,5.10
2023-01-19T10:11:27.525Z,5.70
2023-01-19T10:13:59.115Z,5.90
2023-01-19T10:16:53.491Z,5.20
2023-01-19T10:19:46.802Z,5.90
2023-01-19T10:24:59.507Z,5.40
2023-01-19T10:27:31.938Z,5.60
2023-01-19T10:30:02.293Z,5.40
2023-01-19T10:32:36.148Z,5.10
2023-01-19T10:35:26.355Z,5.70
2023-01-19T10:38:02.347Z,5.10
2023-01-19T10:40:34.009Z,4.50
2023-01-19T10:43:48.692Z,6.60
2023-01-19T10:46:23.821Z,5.50
2023-01-19T10:48:54.543Z,5.30
2023-01-19T10:51:23.736Z,5.50
2023-01-19T10:54:02.622Z,5.60
2023-01-19T10:56:37.677Z,4.00
2023-01-19T10:59:07.785Z,6.00
2023-01-19T11:01:38.186Z,4.10
2023-01-19T11:04:29.943Z,10.20
2023-01-19T11:07:31.310Z,6.30
2023-01-19T11:10:21.074Z,4.00
2023-01-19T11:13:13.646Z,5.60
2023-01-19T11:15:48.595Z,5.60
2023-01-19T11:18:31.817Z,6.20
2023-01-19T11:21:13.582Z,6.40
2023-01-19T11:23:51.927Z,5.70
2023-01-19T11:26:41.036Z,4.70
2023-01-19T11:29:26.532Z,5.90
2023-01-19T11:31:57.941Z,5.50
2023-01-19T11:34:38.148Z,4.50
2023-01-19T11:37:18.908Z,3.70
2023-01-19T11:39:47.748Z,5.20
2023-01-19T11:42:17.892Z,4.20
2023-01-19T11:45:18.039Z,4.10
2023-01-19T11:47:52.028Z,5.10
2023-01-19T11:50:40.056Z,4.40
2023-01-19T11:53:25.554Z,5.00
2023-01-19T11:55:59.088Z,4.90
2023-01-19T11:58:27.930Z,5.80
2023-01-19T12:01:25.109Z,4.70
2023-01-19T12:04:15.470Z,5.30
2023-01-19T12:06:49.654Z,4.60
2023-01-19T12:09:32.206Z,5.40
2023-01-19T12:12:12.946Z,5.20
2023-01-19T12:14:53.095Z,6.10
2023-01-19T12:17:35.041Z,5.30
2023-01-19T12:20:44.498Z,5.50
2023-01-19T12:23:37.154Z,4.20
2023-01-19T12:26:59.956Z,6.40
2023-01-19T12:29:33.649Z,8.10
2023-01-19T12:32:14.292Z,18.80
2023-01-19T12:34:46.935Z,4.50
2023-01-19T12:37:41.970Z,5.60
2023-01-19T12:40:27.551Z,15.70
2023-01-19T12:43:05.813Z,14.80
2023-01-19T12:45:36.905Z,5.40
2023-01-19T12:48:09.115Z,6.90
2023-01-19T12:50:39.253Z,4.60
2023-01-19T12:53:20.860Z,4.30
2023-01-19T12:56:01.373Z,5.30
2023-01-19T12:58:30.523Z,9.00
2023-01-19T13:01:22.060Z,12.40
2023-01-19T13:04:09.434Z,11.80
2023-01-19T13:06:50.198Z,6.00
2023-01-19T13:09:45.627Z,7.10
2023-01-19T13:12:14.558Z,9.30
2023-01-19T13:14:43.822Z,5.00
2023-01-19T13:17:26.478Z,5.30
2023-01-19T13:20:23.315Z,4.90
2023-01-19T13:23:12.933Z,5.20
2023-01-19T13:25:47.163Z,5.70
2023-01-19T13:28:19.152Z,5.00
2023-01-19T13:31:07.326Z,15.60
2023-01-19T13:33:49.547Z,7.80
2023-01-19T13:36:34.561Z,9.90
2023-01-19T13:39:18.340Z,8.50
2023-01-19T13:41:48.395Z,4.60
2023-01-19T13:44:29.621Z,7.20
2023-01-19T13:46:59.998Z,8.10
2023-01-19T13:49:43.999Z,24.90
2023-01-19T13:52:24.982Z,4.80
2023-01-19T13:55:03.548Z,5.70
2023-01-19T13:57:46.957Z,4.90
2023-01-19T14:00:30.027Z,5.60
2023-01-19T14:03:18.718Z,4.90
2023-01-19T14:05:53.873Z,8.10
2023-01-19T14:08:23.858Z,5.00
2023-01-19T14:10:52.601Z,4.40
2023-01-19T14:13:23.513Z,8.10
2023-01-19T14:15:58.257Z,10.40
2023-01-19T14:18:33.590Z,9.00
2023-01-19T14:21:14.179Z,26.80
2023-01-19T14:23:58.198Z,20.30
2023-01-19T14:26:48.162Z,5.70
2023-01-19T14:29:31.745Z,7.80
2023-01-19T14:32:04.210Z,5.80
2023-01-19T14:34:50.391Z,9.10
2023-01-19T14:37:34.165Z,8.50
2023-01-19T14:40:18.624Z,6.70
2023-01-19T14:43:05.879Z,6.40
2023-01-19T14:45:41.553Z,11.20
2023-01-19T14:48:19.576Z,7.60
2023-01-19T14:51:02.965Z,6.70
2023-01-19T14:53:38.527Z,7.80
2023-01-19T14:56:07.840Z,6.70
2023-01-19T14:58:36.767Z,7.50
2023-01-19T15:01:06.909Z,8.90
2023-01-19T15:03:45.356Z,6.50
2023-01-19T15:06:18.734Z,7.80
2023-01-19T15:11:34.283Z,9.40
2023-01-19T15:14:03.706Z,7.30
2023-01-19T15:16:34.668Z,7.20
2023-01-19T15:19:04.147Z,6.80
2023-01-19T15:21:32.925Z,7.90
2023-01-19T15:24:01.757Z,7.00
2023-01-19T15:26:30.578Z,8.10
2023-01-19T15:28:59.313Z,6.70
2023-01-19T15:31:28.145Z,7.40
2023-01-19T15:33:57.169Z,7.40
2023-01-19T15:36:26.077Z,7.60
2023-01-19T15:38:56.039Z,7.10
2023-01-19T15:41:28.113Z,8.80
2023-01-19T15:43:57.378Z,8.40
2023-01-19T15:46:26.726Z,9.40
2023-01-19T15:48:55.496Z,9.00
2023-01-19T15:51:26.348Z,7.70
2023-01-19T15:53:56.250Z,7.80
2023-01-19T15:56:28.554Z,8.30
2023-01-19T15:58:59.279Z,6.90
2023-01-19T16:01:33.197Z,6.70
2023-01-19T16:04:05.855Z,7.40
2023-01-19T16:06:35.099Z,7.10
2023-01-19T16:09:04.147Z,6.60
2023-01-19T16:11:37.952Z,8.00
2023-01-19T16:14:06.724Z,7.40
2023-01-19T16:16:35.511Z,7.80
2023-01-19T16:19:04.585Z,8.70
2023-01-19T16:21:33.340Z,7.00
2023-01-19T16:24:02.072Z,7.50
2023-01-19T16:26:35.506Z,6.70
2023-01-19T16:29:09.025Z,6.90
2023-01-19T16:31:39.859Z,7.90
2023-01-19T16:34:09.767Z,7.10
2023-01-19T16:36:41.717Z,7.80
2023-01-19T16:39:15.654Z,7.70
2023-01-19T16:41:45.577Z,6.40
2023-01-19T16:44:16.782Z,8.80
2023-01-19T16:46:47.445Z,6.50
2023-01-19T16:49:22.681Z,7.90
2023-01-19T16:51:54.885Z,7.10
2023-01-19T16:54:26.295Z,7.30
2023-01-19T16:56:57.651Z,7.40
2023-01-19T16:59:34.104Z,7.60
2023-01-19T17:02:03.269Z,7.60
2023-01-19T17:06:35.785Z,7.30
2023-01-19T17:09:06.517Z,8.50
2023-01-19T17:11:36.169Z,8.00
2023-01-19T17:14:14.336Z,9.10
2023-01-19T17:16:44.468Z,8.30
2023-01-19T17:19:19.839Z,6.90
2023-01-19T17:21:50.719Z,7.50
2023-01-19T17:24:20.027Z,7.70
2023-01-19T17:26:49.037Z,7.70
2023-01-19T17:29:18.445Z,8.20
2023-01-19T17:31:50.023Z,7.60
2023-01-19T17:34:19.099Z,7.60
2023-01-19T17:36:50.663Z,8.00
2023-01-19T17:39:19.452Z,8.60
2023-01-19T17:41:50.283Z,7.60
2023-01-19T17:44:19.337Z,7.40
2023-01-19T17:46:48.769Z,8.30
2023-01-19T17:49:17.875Z,7.40
2023-01-19T17:51:52.200Z,9.30
2023-01-19T17:54:21.308Z,8.70
2023-01-19T17:56:51.156Z,9.00
2023-01-19T17:59:19.970Z,9.30
2023-01-19T18:01:48.825Z,10.50
2023-01-19T18:04:17.674Z,10.60
2023-01-19T18:06:47.310Z,9.80
2023-01-19T18:09:16.917Z,9.70
2023-01-19T18:11:46.638Z,9.40
2023-01-19T18:14:15.536Z,9.90
2023-01-19T18:16:48.905Z,9.60
2023-01-19T18:19:21.519Z,9.20
2023-01-19T18:21:51.264Z,7.40
2023-01-19T18:24:20.124Z,6.90
2023-01-19T18:26:49.002Z,8.50
2023-01-19T18:29:19.616Z,7.30
2023-01-19T18:31:48.558Z,7.90
2023-01-19T18:34:17.609Z,7.40
2023-01-19T18:36:46.664Z,6.00
2023-01-19T18:39:15.868Z,7.10
2023-01-19T18:41:44.741Z,7.10
2023-01-19T18:44:13.844Z,9.60
2023-01-19T18:46:42.781Z,7.20
2023-01-19T18:49:11.766Z,7.90
2023-01-19T18:51:41.917Z,7.40
2023-01-19T18:54:11.497Z,6.50
2023-01-19T18:56:40.340Z,8.60
2023-01-19T18:59:09.180Z,7.20
2023-01-19T19:01:38.428Z,6.70
2023-01-19T19:04:08.796Z,7.10
2023-01-19T19:06:38.665Z,6.90
2023-01-19T19:09:07.576Z,8.60
2023-01-19T19:11:36.869Z,9.00
2023-01-19T19:14:06.635Z,7.00
2023-01-19T19:16:37.463Z,7.20
2023-01-19T19:19:08.661Z,8.70
2023-01-19T19:21:37.660Z,8.90
2023-01-19T19:24:06.860Z,6.80
2023-01-19T19:26:36.567Z,8.20
2023-01-19T19:29:05.590Z,7.70
2023-01-19T19:31:34.510Z,8.40
2023-01-19T19:34:03.342Z,7.20
2023-01-19T19:36:33.783Z,7.90
2023-01-19T19:39:02.664Z,8.40
2023-01-19T19:41:35.136Z,8.90
2023-01-19T19:44:04.364Z,8.50
2023-01-19T19:46:33.146Z,10.50
2023-01-19T19:49:02.032Z,10.50
2023-01-19T19:51:31.107Z,9.50
2023-01-19T19:54:01.678Z,9.80
2023-01-19T19:56:34.277Z,9.80
2023-01-19T19:59:04.099Z,9.20
2023-01-19T20:01:34.074Z,9.40
2023-01-19T20:04:13.459Z,7.60
2023-01-19T20:06:44.973Z,7.40
2023-01-19T20:09:16.060Z,6.30
2023-01-19T20:11:46.943Z,6.80
2023-01-19T20:14:16.576Z,17.60
2023-01-19T20:16:45.622Z,8.30
2023-01-19T20:19:14.427Z,7.00
2023-01-19T20:21:43.727Z,7.30
2023-01-19T20:24:19.297Z,6.10
2023-01-19T20:26:53.187Z,6.90
2023-01-19T20:29:28.072Z,6.60
2023-01-19T20:31:58.567Z,7.00
2023-01-19T20:34:33.516Z,6.90
2023-01-19T20:37:04.868Z,7.10
2023-01-19T20:39:35.627Z,6.50
2023-01-19T20:42:05.994Z,6.70
2023-01-19T20:44:34.794Z,6.40
2023-01-19T20:47:06.510Z,4.80
2023-01-19T20:49:36.893Z,5.20
2023-01-19T20:52:05.740Z,5.90
2023-01-19T20:54:35.367Z,4.80
2023-01-19T20:57:04.296Z,4.00
2023-01-19T20:59:34.476Z,4.20
2023-01-19T21:02:06.316Z,5.20
2023-01-19T21:04:35.229Z,3.50
2023-01-19T21:07:04.949Z,4.20
2023-01-19T21:09:33.821Z,3.40
2023-01-19T21:12:02.839Z,3.70
2023-01-19T21:14:31.810Z,4.20
2023-01-19T21:17:00.705Z,3.70
2023-01-19T21:19:29.813Z,4.40
2023-01-19T21:21:58.892Z,4.90
2023-01-19T21:24:29.528Z,6.40
2023-01-19T21:26:58.434Z,7.90
2023-01-19T21:29:27.515Z,10.60
2023-01-19T21:31:56.397Z,7.30
2023-01-19T21:34:25.310Z,9.10
2023-01-19T21:36:54.237Z,8.80
2023-01-19T21:39:23.196Z,11.80
2023-01-19T21:41:52.024Z,8.00
2023-01-19T21:44:21.020Z,6.00
2023-01-19T21:46:49.880Z,5.30
2023-01-19T21:49:20.367Z,6.20
2023-01-19T21:51:52.859Z,7.40
2023-01-19T21:54:21.589Z,8.60
2023-01-19T21:56:50.342Z,13.20
2023-01-19T21:59:20.439Z,11.20
2023-01-19T22:01:49.597Z,10.80
2023-01-19T22:04:18.516Z,5.90
2023-01-19T22:06:47.597Z,6.40
2023-01-19T22:09:16.446Z,6.50
2023-01-19T22:11:45.212Z,6.10
2023-01-19T22:14:13.930Z,6.30
2023-01-19T22:16:42.905Z,9.60
2023-01-19T22:19:13.239Z,9.50
2023-01-19T22:21:42.650Z,10.30
2023-01-19T22:24:13.031Z,11.00
2023-01-19T22:26:41.868Z,9.20
2023-01-19T22:29:12.086Z,14.70
2023-01-19T22:31:41.164Z,6.60
2023-01-19T22:34:11.155Z,8.80
2023-01-19T22:36:40.007Z,6.40
2023-01-19T22:39:11.932Z,7.40
2023-01-19T22:41:45.066Z,13.70
2023-01-19T22:46:44.966Z,13.60
2023-01-19T22:49:16.931Z,6.90
2023-01-19T22:51:45.941Z,6.70
2023-01-19T22:54:14.955Z,6.30
2023-01-19T22:56:46.403Z,6.00
2023-01-19T22:59:15.513Z,6.30
2023-01-19T23:01:44.682Z,7.10
2023-01-19T23:04:16.121Z,7.60
2023-01-19T23:06:49.520Z,6.80
2023-01-19T23:09:18.825Z,6.50
2023-01-19T23:11:53.137Z,8.50
2023-01-19T23:14:22.885Z,7.70
2023-01-19T23:16:52.225Z,8.40
2023-01-19T23:19:21.358Z,15.00
2023-01-19T23:21:53.826Z,14.10
2023-01-19T23:24:22.620Z,12.80
2023-01-19T23:26:51.931Z,16.30
2023-01-19T23:29:20.920Z,15.20
2023-01-19T23:31:50.825Z,14.30
2023-01-19T23:34:19.713Z,12.60
2023-01-19T23:36:49.002Z,14.40
2023-01-19T23:39:22.763Z,10.70
2023-01-19T23:41:51.615Z,12.20
2023-01-19T23:44:20.815Z,13.50
2023-01-19T23:46:49.697Z,11.90
2023-01-19T23:49:18.800Z,9.30
2023-01-19T23:51:47.792Z,10.50
2023-01-19T23:54:17.107Z,10.30
2023-01-19T23:56:45.974Z,9.50
2023-01-19T23:59:16.746Z,8.30
